Time;durP1;ratioP1;P1;durP2;ratioP2;P2;SDS_P1;SDS_P2;PMS_P1;PMS_P2;Temp;Humidity;BMP_temperature;BMP_pressure;BME280_temperature;BME280_humidity;BME280_pressure;Samples;Min_cycle;Max_cycle;Signal;HPM_P1;HPM_P2
2023/06/07 00:02:12;;;;;;;5.07;4.67;;;16.10;99.90;;;;;;4991067;28;20266;-53
2023/06/07 00:04:39;;;;;;;6.03;5.27;;;16.10;99.90;;;;;;4991095;28;20259;-53
2023/06/07 00:07:06;;;;;;;5.27;4.97;;;16.10;99.90;;;;;;4992783;28;20665;-53
2023/06/07 00:09:33;;;;;;;8.33;5.57;;;16.00;99.90;;;;;;4992919;28;20199;-53
2023/06/07 00:12:00;;;;;;;6.77;6.00;;;16.00;99.90;;;;;;4992509;28;20231;-53
2023/06/07 00:14:27;;;;;;;6.37;5.97;;;15.90;99.90;;;;;;4992252;28;20266;-53
2023/06/07 00:16:57;;;;;;;5.60;5.10;;;15.80;99.90;;;;;;4998865;28;20239;-54
2023/06/07 00:19:24;;;;;;;4.90;4.67;;;15.80;99.90;;;;;;4998894;28;20204;-53
2023/06/07 00:21:52;;;;;;;6.37;5.90;;;15.80;99.90;;;;;;4993821;28;20227;-53
2023/06/07 00:24:19;;;;;;;6.03;5.67;;;15.80;99.90;;;;;;5001863;28;20623;-53
2023/06/07 00:26:46;;;;;;;5.33;5.03;;;15.70;99.90;;;;;;4994936;28;20370;-54
2023/06/07 00:29:14;;;;;;;5.57;5.17;;;15.70;99.90;;;;;;4998799;28;20208;-53
2023/06/07 00:31:41;;;;;;;5.90;5.07;;;15.70;99.90;;;;;;5007896;28;20592;-53
2023/06/07 00:34:09;;;;;;;5.67;5.37;;;15.70;99.90;;;;;;5011519;28;20302;-53
2023/06/07 00:36:37;;;;;;;7.00;6.40;;;15.60;99.90;;;;;;4997970;28;20717;-53
2023/06/07 00:39:04;;;;;;;6.30;5.80;;;15.60;99.90;;;;;;5002760;28;20191;-53
2023/06/07 00:41:32;;;;;;;5.60;5.30;;;15.60;99.90;;;;;;5002245;28;20227;-53
2023/06/07 00:44:01;;;;;;;6.20;5.63;;;15.60;99.90;;;;;;5002809;28;20286;-53
2023/06/07 00:46:30;;;;;;;5.90;5.50;;;15.50;99.90;;;;;;5011385;28;20219;-53
2023/06/07 00:48:58;;;;;;;5.40;5.00;;;15.50;99.90;;;;;;5004901;28;20204;-53
2023/06/07 00:51:31;;;;;;;6.40;5.93;;;15.40;99.90;;;;;;5000920;28;20241;-53
2023/06/07 00:54:00;;;;;;;6.13;5.73;;;15.40;99.90;;;;;;4989506;28;20592;-53
2023/06/07 00:56:28;;;;;;;6.07;5.67;;;15.40;99.90;;;;;;4996983;28;20227;-53
2023/06/07 00:58:55;;;;;;;4.93;4.73;;;15.30;99.90;;;;;;4993357;28;20215;-53
2023/06/07 01:01:22;;;;;;;6.30;6.00;;;15.20;99.90;;;;;;4991397;28;20323;-53
2023/06/07 01:03:49;;;;;;;5.43;5.13;;;15.20;99.90;;;;;;4991104;28;20204;-53
2023/06/07 01:06:16;;;;;;;6.20;5.80;;;15.10;99.90;;;;;;4991799;28;20344;-53
2023/06/07 01:08:45;;;;;;;6.03;5.67;;;15.10;99.90;;;;;;4994863;28;20218;-55
2023/06/07 01:11:14;;;;;;;6.60;6.23;;;15.10;99.90;;;;;;5002883;28;20274;-53
2023/06/07 01:13:41;;;;;;;6.73;6.17;;;15.00;99.90;;;;;;4992034;28;20200;-53
2023/06/07 01:16:09;;;;;;;5.90;5.30;;;15.10;99.90;;;;;;4993972;28;20203;-53
2023/06/07 01:18:37;;;;;;;6.23;5.77;;;15.10;99.90;;;;;;4995292;28;20200;-53
2023/06/07 01:21:06;;;;;;;7.57;6.87;;;15.00;99.90;;;;;;4996987;28;20311;-52
2023/06/07 01:23:36;;;;;;;5.97;5.47;;;15.00;99.90;;;;;;4991804;28;20243;-53
2023/06/07 01:26:04;;;;;;;5.70;5.30;;;15.00;99.90;;;;;;4988815;28;20200;-53
2023/06/07 01:28:34;;;;;;;6.63;6.23;;;15.00;99.90;;;;;;4995715;28;20266;-53
2023/06/07 01:31:02;;;;;;;6.20;5.70;;;14.90;99.90;;;;;;4992417;28;20294;-53
2023/06/07 01:33:31;;;;;;;5.87;5.57;;;14.90;99.90;;;;;;5002059;28;20195;-53
2023/06/07 01:35:59;;;;;;;6.17;5.67;;;14.90;99.90;;;;;;5010354;28;20685;-53
2023/06/07 01:38:28;;;;;;;5.97;5.60;;;14.80;99.90;;;;;;5007098;28;20281;-53
2023/06/07 01:40:57;;;;;;;5.87;5.43;;;14.80;99.90;;;;;;4995655;28;20381;-53
2023/06/07 01:43:25;;;;;;;6.33;5.83;;;14.80;99.90;;;;;;4997290;28;20200;-53
2023/06/07 01:45:53;;;;;;;6.60;6.23;;;14.80;99.90;;;;;;4991510;28;20578;-53
2023/06/07 01:48:20;;;;;;;6.43;5.93;;;14.70;99.90;;;;;;4992087;28;20219;-53
2023/06/07 01:50:47;;;;;;;6.03;5.73;;;14.70;99.90;;;;;;4990928;28;20204;-53
2023/06/07 01:53:15;;;;;;;6.70;6.10;;;14.70;99.90;;;;;;4990498;28;20215;-53
2023/06/07 01:55:42;;;;;;;6.60;6.10;;;14.70;99.90;;;;;;4989762;28;20294;-53
2023/06/07 01:58:19;;;;;;;6.33;5.83;;;14.70;99.90;;;;;;4997515;28;20266;-53
2023/06/07 02:00:53;;;;;;;5.40;5.00;;;14.60;99.90;;;;;;4998658;28;20219;-53
2023/06/07 02:03:26;;;;;;;6.00;5.53;;;14.60;99.90;;;;;;4989103;28;20290;-53
2023/06/07 02:05:59;;;;;;;6.23;5.73;;;14.70;99.90;;;;;;4996597;28;20693;-53
2023/06/07 02:08:30;;;;;;;6.10;5.70;;;14.70;99.90;;;;;;4989801;28;20658;-53
2023/06/07 02:10:59;;;;;;;6.00;5.47;;;14.60;99.90;;;;;;5000889;28;20195;-53
2023/06/07 02:13:30;;;;;;;5.83;5.53;;;14.60;99.90;;;;;;5009817;28;20234;-53
2023/06/07 02:15:57;;;;;;;5.80;5.40;;;14.50;99.90;;;;;;4994805;28;20266;-53
2023/06/07 02:18:25;;;;;;;5.80;5.30;;;14.50;99.90;;;;;;4990277;28;20228;-53
2023/06/07 02:20:52;;;;;;;6.87;6.37;;;14.50;99.90;;;;;;4991465;28;20317;-53
2023/06/07 02:23:21;;;;;;;6.67;6.17;;;14.50;99.90;;;;;;5001201;28;20661;-53
2023/06/07 02:25:48;;;;;;;6.90;6.53;;;14.50;99.90;;;;;;5008605;28;20290;-53
2023/06/07 02:28:15;;;;;;;6.77;6.17;;;14.40;99.90;;;;;;4998217;28;20219;-52
2023/06/07 02:30:43;;;;;;;6.77;6.27;;;14.40;99.90;;;;;;5006511;28;20251;-53
2023/06/07 02:33:13;;;;;;;5.97;5.57;;;14.30;99.90;;;;;;4995888;28;20251;-53
2023/06/07 02:35:41;;;;;;;6.07;5.67;;;14.40;99.90;;;;;;4987669;28;20282;-53
2023/06/07 02:38:08;;;;;;;6.60;5.97;;;14.40;99.90;;;;;;4994070;28;20307;-53
2023/06/07 02:40:35;;;;;;;6.97;6.30;;;14.50;99.90;;;;;;4992613;28;20223;-52
2023/06/07 02:43:02;;;;;;;6.27;5.93;;;14.50;99.90;;;;;;5004715;28;20214;-52
2023/06/07 02:45:29;;;;;;;7.43;6.73;;;14.40;99.90;;;;;;5007921;28;20208;-53
2023/06/07 02:47:58;;;;;;;6.40;6.00;;;14.40;99.90;;;;;;5000493;28;20223;-53
2023/06/07 02:50:25;;;;;;;6.70;6.20;;;14.30;99.90;;;;;;5001936;28;20203;-53
2023/06/07 02:52:52;;;;;;;6.03;5.63;;;14.30;99.90;;;;;;4989143;28;20282;-53
2023/06/07 02:55:19;;;;;;;7.03;6.53;;;14.20;99.90;;;;;;5004696;28;20281;-53
2023/06/07 02:57:46;;;;;;;7.47;6.97;;;14.10;99.90;;;;;;5013435;28;20245;-53
2023/06/07 03:00:14;;;;;;;7.27;6.57;;;14.00;99.90;;;;;;5001008;28;20648;-52
2023/06/07 03:02:41;;;;;;;7.77;7.17;;;13.90;99.90;;;;;;5009382;28;20310;-53
2023/06/07 03:05:10;;;;;;;6.47;6.00;;;14.10;99.90;;;;;;5008984;28;20230;-52
2023/06/07 03:07:40;;;;;;;6.00;5.67;;;13.90;99.90;;;;;;5004715;28;20727;-53
2023/06/07 03:10:08;;;;;;;7.23;6.63;;;13.90;99.90;;;;;;4994539;28;20292;-53
2023/06/07 03:12:35;;;;;;;7.03;6.40;;;13.80;99.90;;;;;;4999517;28;20250;-53
2023/06/07 03:15:02;;;;;;;6.07;5.43;;;13.80;99.90;;;;;;5004256;28;20249;-53
2023/06/07 03:17:30;;;;;;;7.13;6.53;;;13.80;99.90;;;;;;5004284;28;20228;-52
2023/06/07 03:19:57;;;;;;;6.47;6.07;;;13.80;99.90;;;;;;4995880;28;20686;-52
2023/06/07 03:22:26;;;;;;;7.27;6.63;;;13.70;99.90;;;;;;4997570;28;20227;-53
2023/06/07 03:24:54;;;;;;;7.63;7.03;;;13.70;99.90;;;;;;5001559;28;20211;-53
2023/06/07 03:27:23;;;;;;;7.70;6.63;;;13.70;99.90;;;;;;4989378;28;20677;-53
2023/06/07 03:29:51;;;;;;;6.67;6.17;;;13.70;99.90;;;;;;5000377;28;20206;-53
2023/06/07 03:32:17;;;;;;;7.10;6.53;;;13.60;99.90;;;;;;4992645;28;20200;-52
2023/06/07 03:34:45;;;;;;;6.97;6.03;;;13.60;99.90;;;;;;5003751;28;20668;-53
2023/06/07 03:37:16;;;;;;;8.27;6.87;;;13.60;99.90;;;;;;4993557;28;20223;-53
2023/06/07 03:39:44;;;;;;;7.60;6.57;;;13.70;99.90;;;;;;5000948;28;20222;-52
2023/06/07 03:42:11;;;;;;;7.03;6.33;;;13.70;99.90;;;;;;4992659;28;20278;-53
2023/06/07 03:44:38;;;;;;;7.47;6.93;;;13.80;99.90;;;;;;4987840;28;20208;-53
2023/06/07 03:47:06;;;;;;;8.07;7.47;;;13.80;99.90;;;;;;4992512;28;20308;-53
2023/06/07 03:49:33;;;;;;;7.20;6.80;;;13.80;99.90;;;;;;4991725;28;20835;-53
2023/06/07 03:52:00;;;;;;;6.60;6.20;;;13.80;99.90;;;;;;4999053;28;20200;-53
2023/06/07 03:54:27;;;;;;;6.97;6.40;;;13.80;99.90;;;;;;5000541;28;20674;-52
2023/06/07 03:56:56;;;;;;;7.47;6.73;;;13.90;99.90;;;;;;4993439;28;20574;-53
2023/06/07 03:59:24;;;;;;;6.87;5.93;;;13.90;99.90;;;;;;5003903;28;20282;-52
2023/06/07 04:01:51;;;;;;;6.83;6.33;;;13.90;99.90;;;;;;5006981;28;20255;-52
2023/06/07 04:04:18;;;;;;;7.80;7.20;;;13.90;99.90;;;;;;4999276;28;20200;-53
2023/06/07 04:06:45;;;;;;;7.07;6.50;;;13.90;99.90;;;;;;4992488;28;20239;-53
2023/06/07 04:09:15;;;;;;;7.13;6.43;;;13.90;99.90;;;;;;4994995;28;20203;-53
2023/06/07 04:11:42;;;;;;;7.50;6.90;;;13.90;99.90;;;;;;5003645;28;20195;-53
2023/06/07 04:14:10;;;;;;;9.27;8.37;;;14.00;99.90;;;;;;4998431;28;20267;-52
2023/06/07 04:16:37;;;;;;;6.23;5.77;;;14.10;99.90;;;;;;5007861;28;20227;-52
2023/06/07 04:19:04;;;;;;;7.47;6.77;;;14.20;99.90;;;;;;5005628;28;20199;-52
2023/06/07 04:21:32;;;;;;;7.57;6.33;;;14.40;99.90;;;;;;4990926;28;20219;-53
2023/06/07 04:24:00;;;;;;;10.53;7.13;;;14.50;99.90;;;;;;4990830;28;20708;-53
2023/06/07 04:26:31;;;;;;;8.00;7.00;;;14.60;99.90;;;;;;4997957;28;20227;-53
2023/06/07 04:28:58;;;;;;;6.40;6.00;;;14.70;99.90;;;;;;5003394;28;20211;-53
2023/06/07 04:31:29;;;;;;;7.27;6.57;;;14.70;99.90;;;;;;5003950;28;20207;-54
2023/06/07 04:33:57;;;;;;;7.47;6.90;;;14.80;99.90;;;;;;4991251;28;20203;-53
2023/06/07 04:36:25;;;;;;;6.90;6.30;;;14.80;99.90;;;;;;4991662;28;20270;-53
2023/06/07 04:38:52;;;;;;;8.10;7.50;;;14.80;99.90;;;;;;4991965;28;20291;-53
2023/06/07 04:41:19;;;;;;;7.53;7.13;;;14.90;99.90;;;;;;4988830;28;20223;-53
2023/06/07 04:43:48;;;;;;;7.57;7.00;;;15.00;99.90;;;;;;4997084;28;20266;-53
2023/06/07 04:46:15;;;;;;;6.80;6.30;;;15.20;99.90;;;;;;5002838;28;20673;-53
2023/06/07 04:48:44;;;;;;;8.17;7.53;;;15.30;99.90;;;;;;5001035;28;20203;-53
2023/06/07 04:51:13;;;;;;;8.03;7.43;;;15.40;99.90;;;;;;5003251;28;20274;-53
2023/06/07 04:53:42;;;;;;;7.80;6.97;;;15.40;99.90;;;;;;5011150;28;20561;-53
2023/06/07 04:56:09;;;;;;;8.43;7.73;;;15.40;99.90;;;;;;5011199;28;20203;-53
2023/06/07 04:58:39;;;;;;;8.60;7.80;;;15.50;99.90;;;;;;4995414;28;20200;-53
2023/06/07 05:01:09;;;;;;;8.90;8.10;;;15.60;99.90;;;;;;4999323;28;20290;-52
2023/06/07 05:03:37;;;;;;;8.40;7.70;;;15.70;99.90;;;;;;4991121;28;20214;-53
2023/06/07 05:06:05;;;;;;;7.47;6.93;;;15.70;99.90;;;;;;4991363;28;20207;-53
2023/06/07 05:08:32;;;;;;;8.20;7.70;;;15.90;99.90;;;;;;4979049;28;20205;-53
2023/06/07 05:10:59;;;;;;;7.87;7.20;;;16.10;99.90;;;;;;4972164;28;20216;-53
2023/06/07 05:13:26;;;;;;;9.50;8.70;;;16.50;99.90;;;;;;4988834;28;20658;-53
2023/06/07 05:15:54;;;;;;;8.97;8.23;;;17.00;99.90;;;;;;5002536;28;20207;-53
2023/06/07 05:18:21;;;;;;;10.87;9.87;;;17.50;99.90;;;;;;5007401;28;20235;-53
2023/06/07 05:20:48;;;;;;;9.73;7.93;;;18.10;99.90;;;;;;4991507;28;20254;-52
2023/06/07 05:23:17;;;;;;;13.27;7.77;;;18.80;99.90;;;;;;4990002;28;20219;-53
2023/06/07 05:25:45;;;;;;;7.77;7.07;;;19.70;99.90;;;;;;4991195;28;20212;-53
2023/06/07 05:28:12;;;;;;;7.37;6.73;;;20.10;99.90;;;;;;4991106;28;20223;-53
2023/06/07 05:30:39;;;;;;;6.97;6.47;;;20.50;99.90;;;;;;4996928;28;20261;-55
2023/06/07 05:33:07;;;;;;;7.10;6.40;;;20.90;99.90;;;;;;4986874;28;20200;-53
2023/06/07 05:35:34;;;;;;;6.37;5.97;;;21.50;99.90;;;;;;4991927;28;20661;-53
2023/06/07 05:38:02;;;;;;;6.03;5.63;;;21.70;99.90;;;;;;5009893;28;20284;-53
2023/06/07 05:40:30;;;;;;;5.50;4.97;;;22.30;99.90;;;;;;4994656;28;20200;-53
2023/06/07 05:42:57;;;;;;;5.40;5.10;;;22.40;99.90;;;;;;4997744;28;20223;-53
2023/06/07 05:45:24;;;;;;;7.07;5.33;;;22.90;99.90;;;;;;4999155;28;20195;-53
2023/06/07 05:47:51;;;;;;;6.77;5.43;;;23.40;99.90;;;;;;5008425;28;20644;-53
2023/06/07 05:50:20;;;;;;;5.47;5.13;;;23.60;99.90;;;;;;5010531;28;20199;-53
2023/06/07 05:52:47;;;;;;;5.00;4.70;;;23.80;99.90;;;;;;5010146;28;20206;-54
2023/06/07 05:55:14;;;;;;;5.30;5.00;;;24.20;99.90;;;;;;5020006;22;20296;-53
2023/06/07 05:57:44;;;;;;;5.53;5.13;;;24.20;99.90;;;;;;5006285;28;20226;-53
2023/06/07 06:00:12;;;;;;;5.07;4.73;;;24.60;99.90;;;;;;5004870;28;20219;-53
2023/06/07 06:02:41;;;;;;;5.43;4.93;;;24.60;99.90;;;;;;4989717;28;20228;-53
2023/06/07 06:05:08;;;;;;;5.10;4.80;;;24.60;99.90;;;;;;4991833;28;20223;-53
2023/06/07 06:07:37;;;;;;;5.53;5.23;;;25.00;99.90;;;;;;4997707;28;20199;-53
2023/06/07 06:10:04;;;;;;;6.77;5.37;;;25.30;99.90;;;;;;5003229;28;20282;-53
2023/06/07 06:12:33;;;;;;;4.57;4.27;;;24.90;99.90;;;;;;4989944;28;20196;-53
2023/06/07 06:15:02;;;;;;;5.60;5.13;;;25.30;99.90;;;;;;4977138;28;20251;-53
2023/06/07 06:17:30;;;;;;;4.67;4.47;;;25.40;99.90;;;;;;4984027;28;20278;-53
2023/06/07 06:19:57;;;;;;;5.87;5.47;;;26.00;99.90;;;;;;4996748;28;20555;-53
2023/06/07 06:22:25;;;;;;;5.70;5.20;;;25.90;99.90;;;;;;5000455;28;20250;-53
2023/06/07 06:24:53;;;;;;;5.23;4.37;;;25.90;99.90;;;;;;5005018;28;20319;-53
2023/06/07 06:27:20;;;;;;;6.37;5.87;;;26.10;99.90;;;;;;5007153;28;20200;-53
2023/06/07 06:29:47;;;;;;;5.83;5.40;;;26.80;99.90;;;;;;4995599;28;20285;-53
2023/06/07 06:32:19;;;;;;;18.87;6.37;;;26.60;99.90;;;;;;5006980;28;20196;-53
2023/06/07 06:34:46;;;;;;;6.23;5.63;;;26.80;99.90;;;;;;5000812;28;20598;-53
2023/06/07 06:37:16;;;;;;;4.60;4.40;;;26.60;99.90;;;;;;5015511;28;20218;-53
2023/06/07 06:39:46;;;;;;;5.68;5.00;;;26.80;99.90;;;;;;4994295;28;20211;-53
2023/06/07 06:42:13;;;;;;;5.87;5.40;;;27.10;99.90;;;;;;4995175;28;20298;-53
2023/06/07 06:44:40;;;;;;;6.00;5.55;;;27.10;99.70;;;;;;4995147;28;20282;-53
2023/06/07 06:47:13;;;;;;;5.82;5.35;;;26.90;98.80;;;;;;4995558;28;20200;-53
2023/06/07 06:49:42;;;;;;;6.53;6.07;;;26.90;98.60;;;;;;5005251;28;20627;-53
2023/06/07 06:52:12;;;;;;;5.78;5.47;;;27.00;99.90;;;;;;5014577;28;20210;-53
2023/06/07 06:54:39;;;;;;;5.22;4.72;;;27.50;98.70;;;;;;4995168;28;20228;-54
2023/06/07 06:57:08;;;;;;;6.22;5.47;;;28.20;97.20;;;;;;4995582;28;20210;-53
2023/06/07 06:59:35;;;;;;;5.40;5.00;;;28.40;96.50;;;;;;4995466;28;20207;-53
2023/06/07 07:02:02;;;;;;;5.10;4.43;;;28.50;96.00;;;;;;4995185;28;20695;-53
2023/06/07 07:04:31;;;;;;;4.85;4.55;;;28.10;95.30;;;;;;4994756;28;20306;-53
2023/06/07 07:06:59;;;;;;;5.35;5.07;;;28.40;95.90;;;;;;4976484;28;20209;-54
2023/06/07 07:09:26;;;;;;;5.28;4.97;;;28.50;97.60;;;;;;4975931;28;20286;-53
2023/06/07 07:11:53;;;;;;;5.95;5.55;;;28.70;95.80;;;;;;4981364;28;20234;-53
2023/06/07 07:14:20;;;;;;;4.97;4.68;;;28.80;96.00;;;;;;5001983;28;20220;-53
2023/06/07 07:16:47;;;;;;;5.05;4.75;;;28.50;95.60;;;;;;5011825;28;20578;-53
2023/06/07 07:19:14;;;;;;;4.60;4.40;;;28.90;94.30;;;;;;4998299;28;20459;-54
2023/06/07 07:21:43;;;;;;;5.40;5.10;;;29.20;95.80;;;;;;5008832;28;20291;-54
2023/06/07 07:24:11;;;;;;;4.55;4.25;;;29.10;95.00;;;;;;4974950;28;20709;-54
2023/06/07 07:26:39;;;;;;;4.70;4.43;;;29.50;93.00;;;;;;4975304;28;20196;-53
2023/06/07 07:29:06;;;;;;;4.38;4.07;;;29.40;93.80;;;;;;4975251;28;20766;-54
2023/06/07 07:31:33;;;;;;;4.57;4.28;;;29.40;93.90;;;;;;4975073;28;20693;-55
2023/06/07 07:34:00;;;;;;;4.50;4.30;;;29.60;92.60;;;;;;4975123;28;20225;-54
2023/06/07 07:36:27;;;;;;;4.95;4.53;;;29.80;90.30;;;;;;4978593;28;20274;-54
2023/06/07 07:38:55;;;;;;;3.97;3.78;;;29.90;89.40;;;;;;4987490;28;20661;-64
2023/06/07 07:41:23;;;;;;;4.80;4.55;;;29.80;90.20;;;;;;4992673;28;20196;-64
2023/06/07 07:43:51;;;;;;;4.43;4.20;;;30.20;89.20;;;;;;4988801;28;20247;-65
2023/06/07 07:46:18;;;;;;;5.25;5.00;;;30.20;90.70;;;;;;4988941;28;20227;-64
2023/06/07 07:48:45;;;;;;;4.53;4.22;;;30.30;90.40;;;;;;4989408;28;20266;-65
2023/06/07 07:51:12;;;;;;;7.90;4.38;;;30.40;91.00;;;;;;4989410;28;20218;-65
2023/06/07 07:53:39;;;;;;;5.60;5.10;;;30.40;90.10;;;;;;4985927;28;20884;-66
2023/06/07 07:56:06;;;;;;;5.03;4.82;;;30.60;90.50;;;;;;4987088;28;20226;-66
2023/06/07 07:58:35;;;;;;;5.22;4.47;;;30.20;90.20;;;;;;4989075;28;20204;-64
2023/06/07 08:01:02;;;;;;;5.30;4.90;;;30.90;88.50;;;;;;4991753;28;20286;-64
2023/06/07 08:03:30;;;;;;;5.05;4.72;;;31.20;91.80;;;;;;4989520;28;20231;-65
2023/06/07 08:05:57;;;;;;;5.10;4.60;;;30.70;92.00;;;;;;4987610;28;20216;-65
2023/06/07 08:08:25;;;;;;;5.63;5.18;;;31.00;91.70;;;;;;4988696;28;20236;-64
2023/06/07 08:10:52;;;;;;;5.70;5.20;;;31.30;92.30;;;;;;4987392;28;20283;-60
2023/06/07 08:13:19;;;;;;;4.50;4.05;;;31.00;90.50;;;;;;4992628;28;20199;-60
2023/06/07 08:15:48;;;;;;;5.15;4.30;;;31.70;90.00;;;;;;4987826;28;20219;-62
2023/06/07 08:18:17;;;;;;;5.07;4.50;;;31.50;88.30;;;;;;4986697;28;20613;-61
2023/06/07 08:20:44;;;;;;;5.30;5.07;;;31.20;84.90;;;;;;4998731;28;20200;-60
2023/06/07 08:23:11;;;;;;;5.65;5.30;;;31.60;83.80;;;;;;5012867;28;20223;-61
2023/06/07 08:25:39;;;;;;;7.50;4.97;;;31.50;87.50;;;;;;5002095;28;20200;-61
2023/06/07 08:28:06;;;;;;;5.85;5.35;;;31.10;86.50;;;;;;4999586;28;20221;-62
2023/06/07 08:30:33;;;;;;;6.82;6.32;;;31.10;87.70;;;;;;4993784;28;20204;-62
2023/06/07 08:33:01;;;;;;;5.93;5.43;;;30.40;91.60;;;;;;4996434;28;20669;-63
2023/06/07 08:35:28;;;;;;;8.18;6.00;;;30.90;90.30;;;;;;5005029;28;20640;-62
2023/06/07 08:37:55;;;;;;;4.78;4.50;;;31.00;87.90;;;;;;4996266;28;20204;-62
2023/06/07 08:40:24;;;;;;;5.35;4.93;;;31.50;90.90;;;;;;4997508;28;20200;-61
2023/06/07 08:42:51;;;;;;;5.10;4.70;;;30.60;85.20;;;;;;5000434;28;20222;-61
2023/06/07 08:45:20;;;;;;;4.90;4.60;;;31.20;85.80;;;;;;4989555;28;20232;-62
2023/06/07 08:47:47;;;;;;;4.50;4.20;;;31.50;90.10;;;;;;4989906;28;20203;-61
2023/06/07 08:50:18;;;;;;;4.80;4.60;;;31.00;87.50;;;;;;4991800;28;20200;-60
2023/06/07 08:52:51;;;;;;;5.00;4.53;;;30.60;90.70;;;;;;4991276;28;20204;-62
2023/06/07 08:55:18;;;;;;;5.60;5.38;;;31.60;86.80;;;;;;4988097;28;20310;-61
2023/06/07 08:57:50;;;;;;;4.85;4.55;;;32.00;81.50;;;;;;4991480;28;20207;-64
2023/06/07 09:00:21;;;;;;;6.28;5.80;;;32.40;81.90;;;;;;4989855;28;20234;-65
2023/06/07 09:02:51;;;;;;;4.85;4.65;;;31.60;86.20;;;;;;4990751;28;21092;-60
2023/06/07 09:05:19;;;;;;;3.95;3.75;;;31.40;89.30;;;;;;4991093;28;20223;-61
2023/06/07 09:07:46;;;;;;;5.15;4.82;;;31.20;87.20;;;;;;4989431;28;20258;-61
2023/06/07 09:10:17;;;;;;;4.60;4.40;;;30.50;85.30;;;;;;4986002;28;20204;-60
2023/06/07 09:12:45;;;;;;;5.07;4.78;;;30.30;88.60;;;;;;4983580;28;20275;-62
2023/06/07 09:15:19;;;;;;;5.45;5.20;;;30.30;88.20;;;;;;4986521;28;20227;-60
2023/06/07 09:17:53;;;;;;;4.25;4.05;;;29.90;90.00;;;;;;4987971;28;20793;-63
2023/06/07 09:20:23;;;;;;;4.63;4.32;;;29.90;91.00;;;;;;4987663;28;20219;-62
2023/06/07 09:23:08;;;;;;;4.57;4.25;;;30.20;91.50;;;;;;4992698;28;20239;-62
2023/06/07 09:25:37;;;;;;;4.13;3.92;;;30.70;89.60;;;;;;4986237;28;20218;-61
2023/06/07 09:28:05;;;;;;;4.43;3.75;;;31.00;88.80;;;;;;4991954;28;20238;-62
2023/06/07 09:30:32;;;;;;;5.82;4.13;;;30.90;88.50;;;;;;4987748;28;20270;-62
2023/06/07 09:32:59;;;;;;;3.97;3.42;;;31.40;87.60;;;;;;4986408;28;20192;-61
2023/06/07 09:35:28;;;;;;;4.40;3.97;;;32.00;89.40;;;;;;4986700;28;20775;-62
2023/06/07 09:37:55;;;;;;;4.63;4.22;;;31.40;87.90;;;;;;4986449;28;20684;-63
2023/06/07 09:40:23;;;;;;;3.67;3.38;;;31.30;87.20;;;;;;4987558;28;20200;-62
2023/06/07 09:42:58;;;;;;;4.80;4.50;;;31.70;87.50;;;;;;4985701;28;20849;-63
2023/06/07 09:45:26;;;;;;;4.63;4.32;;;31.50;87.10;;;;;;4984621;28;20227;-61
2023/06/07 09:48:02;;;;;;;4.88;4.55;;;30.80;85.80;;;;;;4986814;28;20200;-63
2023/06/07 09:50:31;;;;;;;3.92;3.63;;;31.20;85.70;;;;;;4985448;28;20227;-63
2023/06/07 09:53:01;;;;;;;4.88;4.63;;;31.70;87.10;;;;;;4986384;28;20688;-63
2023/06/07 09:55:29;;;;;;;4.47;4.28;;;31.00;86.30;;;;;;4986818;28;20263;-63
2023/06/07 09:57:57;;;;;;;3.90;3.72;;;30.90;88.40;;;;;;4985414;28;20290;-66
2023/06/07 10:00:25;;;;;;;3.38;3.28;;;31.30;84.90;;;;;;4986511;28;20211;-62
2023/06/07 10:02:52;;;;;;;3.42;3.33;;;31.20;85.40;;;;;;4996410;28;20290;-63
2023/06/07 10:05:21;;;;;;;5.13;3.15;;;31.70;84.20;;;;;;4990774;28;20310;-62
2023/06/07 10:07:53;;;;;;;6.75;4.18;;;30.80;86.20;;;;;;4985675;28;20235;-64
2023/06/07 10:10:24;;;;;;;3.97;3.78;;;31.10;86.10;;;;;;4985820;28;20212;-62
2023/06/07 10:12:52;;;;;;;2.92;2.83;;;30.90;90.30;;;;;;4986007;28;20204;-62
2023/06/07 10:15:23;;;;;;;4.72;3.60;;;30.90;88.40;;;;;;4984322;28;20259;-63
2023/06/07 10:17:55;;;;;;;5.03;3.42;;;31.10;90.20;;;;;;4985676;28;20223;-63
2023/06/07 10:20:27;;;;;;;4.18;3.88;;;31.10;85.30;;;;;;4996008;28;20669;-63
2023/06/07 10:23:03;;;;;;;3.67;2.90;;;31.10;85.00;;;;;;5009596;28;20257;-60
2023/06/07 10:25:32;;;;;;;3.63;3.50;;;30.80;85.20;;;;;;5001123;28;20230;-62
2023/06/07 10:28:12;;;;;;;4.47;3.95;;;30.70;88.40;;;;;;4991671;28;20206;-59
2023/06/07 10:30:44;;;;;;;9.35;3.47;;;29.80;86.00;;;;;;4991047;28;20211;-62
2023/06/07 10:33:12;;;;;;;3.38;3.17;;;30.00;84.30;;;;;;4991307;28;20204;-52
2023/06/07 10:35:41;;;;;;;4.40;4.10;;;30.70;84.00;;;;;;4999242;28;20633;-53
2023/06/07 10:38:11;;;;;;;3.83;3.53;;;30.90;81.80;;;;;;4999082;28;20196;-53
2023/06/07 10:40:38;;;;;;;3.75;3.35;;;31.00;86.50;;;;;;4992004;28;20287;-53
2023/06/07 10:43:06;;;;;;;3.45;3.35;;;31.10;87.10;;;;;;4990803;28;20208;-53
2023/06/07 10:45:32;;;;;;;3.92;3.70;;;30.50;85.10;;;;;;4990469;28;20220;-53
2023/06/07 10:48:32;;;;;;;3.55;3.45;;;30.60;82.10;;;;;;5001084;28;20666;-53
2023/06/07 10:50:59;;;;;;;4.47;4.10;;;30.80;83.90;;;;;;4990542;28;20456;-62
2023/06/07 10:53:49;;;;;;;3.97;3.65;;;30.20;84.50;;;;;;4996420;28;20286;-63
2023/06/07 10:56:32;;;;;;;3.80;3.47;;;30.00;83.50;;;;;;4984766;28;20200;-63
2023/06/07 10:59:20;;;;;;;3.72;3.08;;;29.50;83.10;;;;;;4989777;28;20208;-62
2023/06/07 11:01:49;;;;;;;4.00;3.80;;;29.10;84.00;;;;;;4995088;28;20637;-64
2023/06/07 11:04:49;;;;;;;3.05;2.95;;;28.90;81.40;;;;;;5005533;28;20227;-64
2023/06/07 11:07:17;;;;;;;4.25;3.85;;;29.00;82.40;;;;;;4993390;28;20200;-64
2023/06/07 11:09:45;;;;;;;3.78;3.65;;;29.00;76.10;;;;;;4993746;28;20203;-62
2023/06/07 11:12:56;;;;;;;3.70;3.47;;;29.00;80.90;;;;;;4993980;28;20204;-63
2023/06/07 11:15:27;;;;;;;2.65;2.55;;;28.90;82.10;;;;;;4991860;28;20234;-53
2023/06/07 11:17:56;;;;;;;3.45;3.35;;;28.90;82.50;;;;;;4989862;28;20208;-52
2023/06/07 11:20:51;;;;;;;3.90;3.10;;;28.70;82.90;;;;;;5000660;28;20200;-63
2023/06/07 11:23:28;;;;;;;3.45;3.25;;;28.10;80.30;;;;;;5001527;28;20212;-64
2023/06/07 11:26:00;;;;;;;3.88;3.58;;;28.30;79.30;;;;;;4987887;28;20203;-64
2023/06/07 11:28:28;;;;;;;7.90;3.50;;;28.20;80.60;;;;;;4989689;28;20238;-62
2023/06/07 11:30:55;;;;;;;8.70;3.30;;;28.00;80.30;;;;;;4991275;28;20235;-63
2023/06/07 11:33:22;;;;;;;3.22;3.05;;;28.00;81.50;;;;;;5004824;28;20274;-61
2023/06/07 11:35:50;;;;;;;5.25;3.40;;;28.20;81.80;;;;;;4992053;28;20211;-53
2023/06/07 11:38:17;;;;;;;3.35;3.03;;;28.10;77.30;;;;;;5001860;28;20200;-53
2023/06/07 11:40:44;;;;;;;6.33;4.27;;;27.90;78.40;;;;;;4990271;28;20236;-65
2023/06/07 11:43:13;;;;;;;4.18;3.60;;;27.60;79.50;;;;;;4988264;28;20670;-66
2023/06/07 11:45:42;;;;;;;3.72;3.53;;;27.40;79.90;;;;;;4988380;28;20240;-61
2023/06/07 11:48:09;;;;;;;5.80;3.42;;;27.30;85.20;;;;;;4986882;28;20200;-62
2023/06/07 11:50:37;;;;;;;3.30;3.13;;;27.20;75.00;;;;;;4988216;28;20200;-60
2023/06/07 11:53:05;;;;;;;3.65;3.55;;;27.50;78.30;;;;;;4986916;28;20286;-61
2023/06/07 11:55:32;;;;;;;3.58;3.25;;;27.60;84.00;;;;;;4988398;28;20241;-55
2023/06/07 11:58:01;;;;;;;4.18;3.97;;;27.70;76.40;;;;;;4987896;28;20206;-55
2023/06/07 12:00:32;;;;;;;7.00;3.92;;;27.20;80.20;;;;;;4997318;28;20658;-55
2023/06/07 12:02:59;;;;;;;4.17;3.77;;;27.20;82.90;;;;;;4988005;28;21794;-55
2023/06/07 12:05:31;;;;;;;3.53;3.42;;;27.00;83.20;;;;;;4987762;28;20263;-54
2023/06/07 12:08:04;;;;;;;4.60;4.32;;;26.90;82.50;;;;;;4988884;28;20208;-55
2023/06/07 12:10:32;;;;;;;3.78;3.47;;;26.50;85.30;;;;;;4987545;28;20222;-54
2023/06/07 12:13:09;;;;;;;4.00;3.70;;;26.30;87.40;;;;;;4988467;28;20286;-55
2023/06/07 12:15:42;;;;;;;6.07;3.87;;;26.30;90.10;;;;;;4988741;28;20286;-54
2023/06/07 12:18:12;;;;;;;3.70;3.50;;;26.40;86.80;;;;;;4988325;28;20216;-55
2023/06/07 12:20:40;;;;;;;4.50;4.10;;;26.40;83.90;;;;;;4990140;28;20199;-55
2023/06/07 12:23:07;;;;;;;4.83;4.53;;;26.40;88.50;;;;;;5004705;28;20222;-54
2023/06/07 12:25:35;;;;;;;7.20;3.90;;;26.30;90.20;;;;;;5018580;23;20294;-55
2023/06/07 12:28:06;;;;;;;4.47;4.17;;;26.30;91.70;;;;;;4985736;28;20306;-55
2023/06/07 12:30:34;;;;;;;3.57;3.23;;;26.40;85.50;;;;;;4985407;28;20653;-55
2023/06/07 12:33:03;;;;;;;4.43;4.13;;;26.40;85.80;;;;;;4984475;28;20226;-55
2023/06/07 12:35:38;;;;;;;3.90;3.60;;;26.30;86.70;;;;;;4985433;28;20196;-55
2023/06/07 12:38:05;;;;;;;3.93;3.73;;;26.10;83.60;;;;;;4986785;28;20221;-55
2023/06/07 12:40:32;;;;;;;4.97;3.97;;;26.10;85.80;;;;;;4986097;28;20299;-55
2023/06/07 12:42:59;;;;;;;4.07;3.87;;;26.20;86.90;;;;;;4984234;28;20228;-55
2023/06/07 12:45:26;;;;;;;6.00;4.30;;;26.30;91.00;;;;;;4997767;28;20278;-55
2023/06/07 12:47:54;;;;;;;3.87;3.67;;;26.30;87.00;;;;;;4986220;28;20303;-55
2023/06/07 12:50:22;;;;;;;4.23;4.00;;;26.40;88.80;;;;;;4992509;28;20210;-55
2023/06/07 12:52:50;;;;;;;4.23;3.93;;;26.60;85.40;;;;;;4993225;28;20686;-56
2023/06/07 12:55:17;;;;;;;4.83;4.47;;;26.60;85.50;;;;;;4984305;28;21272;-55